createdAt,value
2018-12-22T00:00:48.169Z,1001.83
2018-12-22T00:01:48.156Z,1001.85
2018-12-22T00:02:48.321Z,1001.84
2018-12-22T00:03:48.140Z,1001.80
2018-12-22T00:04:48.189Z,1001.85
2018-12-22T00:05:48.154Z,1001.87
2018-12-22T00:06:48.094Z,1001.85
2018-12-22T00:07:48.264Z,1001.80
2018-12-22T00:08:48.078Z,1001.93
2018-12-22T00:09:48.068Z,1001.86
2018-12-22T00:10:48.074Z,1001.90
2018-12-22T00:11:48.042Z,1001.92
2018-12-22T00:12:48.046Z,1001.88
2018-12-22T00:13:48.051Z,1001.85
2018-12-22T00:14:48.123Z,1001.85
2018-12-22T00:15:48.014Z,1001.93
2018-12-22T00:16:48.003Z,1001.96
2018-12-22T00:17:48.020Z,1001.95
2018-12-22T00:18:47.989Z,1001.99
2018-12-22T00:19:47.957Z,1001.95
2018-12-22T00:20:48.045Z,1002.01
2018-12-22T00:21:48.008Z,1002.00
2018-12-22T00:22:47.951Z,1001.97
2018-12-22T00:23:47.961Z,1001.96
2018-12-22T00:24:47.916Z,1001.92
2018-12-22T00:25:47.911Z,1001.92
2018-12-22T00:26:47.934Z,1001.88
2018-12-22T00:27:47.884Z,1001.90
2018-12-22T00:28:47.873Z,1001.86
2018-12-22T00:29:47.857Z,1001.87
2018-12-22T00:30:47.871Z,1001.87
2018-12-22T00:31:47.843Z,1001.87
2018-12-22T00:32:47.818Z,1001.85
2018-12-22T00:33:47.840Z,1001.91
2018-12-22T00:34:47.812Z,1001.84
2018-12-22T00:35:47.791Z,1001.84
2018-12-22T00:36:47.789Z,1001.91
2018-12-22T00:37:47.787Z,1001.82
2018-12-22T00:38:47.771Z,1001.86
2018-12-22T00:39:47.759Z,1001.84
2018-12-22T00:40:47.752Z,1001.85
2018-12-22T00:41:47.729Z,1001.83
2018-12-22T00:42:47.718Z,1001.83
2018-12-22T00:43:47.720Z,1001.79
2018-12-22T00:44:47.723Z,1001.82
2018-12-22T00:45:47.671Z,1001.79
2018-12-22T00:46:47.657Z,1001.78
2018-12-22T00:47:47.676Z,1001.79
2018-12-22T00:48:47.715Z,1001.84
2018-12-22T00:49:47.665Z,1001.81
2018-12-22T00:50:47.651Z,1001.82
2018-12-22T00:51:47.654Z,1001.83
2018-12-22T00:52:47.588Z,1001.81
2018-12-22T00:53:47.603Z,1001.82
2018-12-22T00:54:47.627Z,1001.86
2018-12-22T00:55:47.561Z,1001.81
2018-12-22T00:56:47.556Z,1001.95
2018-12-22T00:57:47.536Z,1001.92
2018-12-22T00:58:47.542Z,1001.97
2018-12-22T00:59:47.510Z,1001.95
2018-12-22T01:00:47.507Z,1001.86
2018-12-22T01:01:47.498Z,1001.90
2018-12-22T01:02:47.479Z,1001.89
2018-12-22T01:03:47.490Z,1001.90
2018-12-22T01:04:47.474Z,1001.90
2018-12-22T01:05:47.456Z,1001.90
2018-12-22T01:06:47.454Z,1001.93
2018-12-22T01:07:47.425Z,1001.87
2018-12-22T01:08:47.419Z,1001.94
2018-12-22T01:09:47.423Z,1001.93
2018-12-22T01:10:47.391Z,1001.90
2018-12-22T01:11:47.386Z,1001.91
2018-12-22T01:12:47.373Z,1001.86
2018-12-22T01:13:47.397Z,1001.91
2018-12-22T01:14:47.360Z,1001.92
2018-12-22T01:15:47.376Z,1001.88
2018-12-22T01:16:47.561Z,1001.89
2018-12-22T01:17:47.353Z,1001.92
2018-12-22T01:18:47.344Z,1001.89
2018-12-22T01:19:47.332Z,1001.91
2018-12-22T01:20:47.293Z,1001.89
2018-12-22T01:21:47.300Z,1001.90
2018-12-22T01:22:47.276Z,1001.89
2018-12-22T01:23:47.294Z,1001.90
2018-12-22T01:24:47.274Z,1001.89
2018-12-22T01:25:47.281Z,1001.94
2018-12-22T01:26:47.235Z,1001.92
2018-12-22T01:27:47.223Z,1001.92
2018-12-22T01:28:47.252Z,1001.95
2018-12-22T01:29:47.220Z,1001.94
2018-12-22T01:30:47.208Z,1001.93
2018-12-22T01:31:47.215Z,1001.91
2018-12-22T01:32:47.225Z,1001.89
2018-12-22T01:33:47.158Z,1001.91
2018-12-22T01:34:47.144Z,1001.90
2018-12-22T01:35:47.154Z,1001.91
2018-12-22T01:36:47.106Z,1001.94
2018-12-22T01:37:47.098Z,1001.87
2018-12-22T01:38:47.100Z,1001.90
2018-12-22T01:39:47.136Z,1001.93
2018-12-22T01:40:47.063Z,1001.90
2018-12-22T01:41:47.071Z,1001.92
2018-12-22T01:42:47.102Z,1001.89
2018-12-22T01:43:47.032Z,1001.88
2018-12-22T01:44:47.105Z,1001.84
2018-12-22T01:45:47.024Z,1001.76
2018-12-22T01:46:46.998Z,1001.71
2018-12-22T01:47:46.996Z,1001.59
2018-12-22T01:48:47.019Z,1001.57
2018-12-22T01:49:46.979Z,1001.57
2018-12-22T01:50:46.959Z,1001.60
2018-12-22T01:51:46.950Z,1001.61
2018-12-22T01:52:46.965Z,1001.63
2018-12-22T01:53:46.916Z,1001.66
2018-12-22T01:54:46.927Z,1001.64
2018-12-22T01:55:46.912Z,1001.68
2018-12-22T01:56:46.887Z,1001.68
2018-12-22T01:57:46.920Z,1001.69
2018-12-22T01:58:47.927Z,1001.67
2018-12-22T01:59:46.872Z,1001.73
2018-12-22T02:00:46.854Z,1001.73
2018-12-22T02:01:46.827Z,1001.75
2018-12-22T02:02:46.828Z,1001.76
2018-12-22T02:03:46.845Z,1001.72
2018-12-22T02:04:46.820Z,1001.71
2018-12-22T02:05:46.947Z,1001.67
2018-12-22T02:06:46.785Z,1001.71
2018-12-22T02:07:46.782Z,1001.74
2018-12-22T02:08:46.798Z,1001.76
2018-12-22T02:09:46.762Z,1001.77
2018-12-22T02:10:46.744Z,1001.75
2018-12-22T02:11:46.728Z,1001.74
2018-12-22T02:12:46.738Z,1001.77
2018-12-22T02:13:46.709Z,1001.74
2018-12-22T02:14:46.753Z,1001.72
2018-12-22T02:15:46.709Z,1001.74
2018-12-22T02:16:46.680Z,1001.75
2018-12-22T02:17:46.656Z,1001.73
2018-12-22T02:18:46.660Z,1001.77
2018-12-22T02:19:46.707Z,1001.75
2018-12-22T02:20:46.648Z,1001.70
2018-12-22T02:21:46.621Z,1001.71
2018-12-22T02:22:46.641Z,1001.68
2018-12-22T02:23:46.600Z,1001.68
2018-12-22T02:24:46.583Z,1001.63
2018-12-22T02:25:46.595Z,1001.61
2018-12-22T02:26:46.561Z,1001.58
2018-12-22T02:27:46.549Z,1001.55
2018-12-22T02:28:46.560Z,1001.56
2018-12-22T02:29:46.535Z,1001.51
2018-12-22T02:30:46.516Z,1001.48
2018-12-22T02:31:46.510Z,1001.42
2018-12-22T02:32:46.517Z,1001.38
2018-12-22T02:33:46.495Z,1001.39
2018-12-22T02:34:46.478Z,1001.37
2018-12-22T02:35:46.482Z,1001.42
2018-12-22T02:36:46.483Z,1001.43
2018-12-22T02:37:46.510Z,1001.45
2018-12-22T02:38:46.431Z,1001.41
2018-12-22T02:39:46.446Z,1001.38
2018-12-22T02:40:46.553Z,1001.37
2018-12-22T02:41:46.457Z,1001.37
2018-12-22T02:42:46.398Z,1001.37
2018-12-22T02:43:46.370Z,1001.38
2018-12-22T02:44:46.454Z,1001.38
2018-12-22T02:45:46.345Z,1001.38
2018-12-22T02:46:46.339Z,1001.43
2018-12-22T02:47:46.358Z,1001.43
2018-12-22T02:48:46.346Z,1001.47
2018-12-22T02:49:46.329Z,1001.43
2018-12-22T02:50:46.318Z,1001.41
2018-12-22T02:51:46.314Z,1001.38
2018-12-22T02:52:46.282Z,1001.39
2018-12-22T02:53:46.328Z,1001.34
2018-12-22T02:54:46.269Z,1001.35
2018-12-22T02:55:46.288Z,1001.36
2018-12-22T02:56:46.239Z,1001.36
2018-12-22T02:57:46.235Z,1001.33
2018-12-22T02:58:46.224Z,1001.34
2018-12-22T02:59:46.208Z,1001.36
2018-12-22T03:00:46.214Z,1001.31
2018-12-22T03:01:46.235Z,1001.30
2018-12-22T03:02:46.177Z,1001.26
2018-12-22T03:03:46.172Z,1001.25
2018-12-22T03:04:46.143Z,1001.20
2018-12-22T03:05:46.138Z,1001.17
2018-12-22T03:06:46.182Z,1001.23
2018-12-22T03:07:46.117Z,1001.20
2018-12-22T03:08:46.096Z,1001.17
2018-12-22T03:09:46.094Z,1001.17
2018-12-22T03:10:46.095Z,1001.20
2018-12-22T03:11:46.072Z,1001.18
2018-12-22T03:12:46.056Z,1001.15
2018-12-22T03:13:46.082Z,1001.10
2018-12-22T03:14:46.027Z,1001.08
2018-12-22T03:15:46.039Z,1001.14
2018-12-22T03:16:46.032Z,1001.14
2018-12-22T03:17:46.047Z,1001.12
2018-12-22T03:18:46.011Z,1001.14
2018-12-22T03:19:45.974Z,1001.16
2018-12-22T03:20:45.998Z,1001.13
2018-12-22T03:21:46.034Z,1001.06
2018-12-22T03:22:46.000Z,1001.07
2018-12-22T03:23:46.007Z,1000.99
2018-12-22T03:24:45.934Z,1001.00
2018-12-22T03:25:45.946Z,1001.00
2018-12-22T03:26:45.901Z,1001.04
2018-12-22T03:27:45.952Z,1001.00
2018-12-22T03:28:45.888Z,1000.93
2018-12-22T03:29:45.884Z,1000.92
2018-12-22T03:30:45.915Z,1000.89
2018-12-22T03:31:45.856Z,1000.88
2018-12-22T03:32:45.874Z,1000.87
2018-12-22T03:33:45.873Z,1000.86
2018-12-22T03:34:45.852Z,1000.82
2018-12-22T03:35:45.840Z,1000.82
2018-12-22T03:36:45.811Z,1000.83
2018-12-22T03:37:45.805Z,1000.84
2018-12-22T03:38:45.802Z,1000.81
2018-12-22T03:39:45.763Z,1000.77
2018-12-22T03:40:45.872Z,1000.78
2018-12-22T03:41:45.775Z,1000.80
2018-12-22T03:42:45.755Z,1000.72
2018-12-22T03:43:45.735Z,1000.73
2018-12-22T03:44:45.741Z,1000.74
2018-12-22T03:45:45.735Z,1000.72
2018-12-22T03:46:45.718Z,1000.78
2018-12-22T03:47:45.660Z,1000.70
2018-12-22T03:48:45.699Z,1000.74
2018-12-22T03:49:45.710Z,1000.72
2018-12-22T03:50:45.650Z,1000.67
2018-12-22T03:51:45.627Z,1000.71
2018-12-22T03:52:45.635Z,1000.67
2018-12-22T03:53:45.608Z,1000.72
2018-12-22T03:54:45.602Z,1000.65
2018-12-22T03:55:45.599Z,1000.72
2018-12-22T03:56:45.568Z,1000.63
2018-12-22T03:57:45.559Z,1000.62
2018-12-22T03:58:45.549Z,1000.66
2018-12-22T03:59:45.536Z,1000.69
2018-12-22T04:00:45.559Z,1000.72
2018-12-22T04:01:45.531Z,1000.69
2018-12-22T04:02:45.513Z,1000.75
2018-12-22T04:03:45.527Z,1000.73
2018-12-22T04:04:45.512Z,1000.78
2018-12-22T04:05:45.621Z,1000.74
2018-12-22T04:06:45.516Z,1000.73
2018-12-22T04:07:45.481Z,1000.74
2018-12-22T04:08:45.434Z,1000.85
2018-12-22T04:09:45.447Z,1000.70
2018-12-22T04:10:45.430Z,1000.79
2018-12-22T04:11:45.421Z,1000.78
2018-12-22T04:12:45.410Z,1000.74
2018-12-22T04:13:45.412Z,1000.74
2018-12-22T04:14:45.393Z,1000.74
2018-12-22T04:15:45.375Z,1000.79
2018-12-22T04:16:45.367Z,1000.85
2018-12-22T04:17:45.341Z,1000.77
2018-12-22T04:18:45.413Z,1000.85
2018-12-22T04:19:45.333Z,1000.78
2018-12-22T04:20:45.316Z,1000.71
2018-12-22T04:21:45.300Z,1000.74
2018-12-22T04:22:45.285Z,1000.77
2018-12-22T04:23:45.282Z,1000.90
2018-12-22T04:24:45.275Z,1000.80
2018-12-22T04:25:45.304Z,1000.85
2018-12-22T04:26:45.360Z,1000.88
2018-12-22T04:27:45.235Z,1000.79
2018-12-22T04:28:45.225Z,1000.90
2018-12-22T04:29:45.363Z,1000.98
2018-12-22T04:30:45.203Z,1001.00
2018-12-22T04:31:45.204Z,1000.82
2018-12-22T04:32:45.173Z,1000.80
2018-12-22T04:33:45.192Z,1000.87
2018-12-22T04:34:45.148Z,1000.79
2018-12-22T04:35:45.204Z,1000.78
2018-12-22T04:36:45.215Z,1000.83
2018-12-22T04:37:45.163Z,1000.75
2018-12-22T04:38:45.183Z,1000.75
2018-12-22T04:39:45.128Z,1000.76
2018-12-22T04:40:45.091Z,1000.83
2018-12-22T04:41:45.127Z,1000.86
2018-12-22T04:42:45.059Z,1000.81
2018-12-22T04:43:45.099Z,1000.76
2018-12-22T04:44:45.058Z,1000.75
2018-12-22T04:45:45.029Z,1000.69
2018-12-22T04:46:45.023Z,1000.70
2018-12-22T04:47:45.045Z,1000.76
2018-12-22T04:48:45.039Z,1000.85
2018-12-22T04:49:44.977Z,1000.86
2018-12-22T04:50:44.986Z,1000.87
2018-12-22T04:51:45.018Z,1000.98
2018-12-22T04:52:44.963Z,1000.87
2018-12-22T04:53:44.951Z,1000.95
2018-12-22T04:54:44.943Z,1000.89
2018-12-22T04:55:44.916Z,1000.91
2018-12-22T04:56:44.943Z,1000.86
2018-12-22T04:57:44.916Z,1000.91
2018-12-22T04:58:44.908Z,1000.83
2018-12-22T04:59:44.879Z,1000.91
2018-12-22T05:00:44.867Z,1000.90
2018-12-22T05:01:44.976Z,1001.07
2018-12-22T05:02:44.840Z,1001.08
2018-12-22T05:03:44.873Z,1001.04
2018-12-22T05:04:44.832Z,1001.08
2018-12-22T05:05:44.829Z,1001.10
2018-12-22T05:06:44.828Z,1001.08
2018-12-22T05:07:44.804Z,1001.14
2018-12-22T05:08:44.786Z,1001.02
2018-12-22T05:09:44.785Z,1001.11
2018-12-22T05:10:44.753Z,1001.08
2018-12-22T05:11:44.882Z,1001.11
2018-12-22T05:12:44.748Z,1001.09
2018-12-22T05:13:44.737Z,1001.14
2018-12-22T05:14:44.733Z,1001.04
2018-12-22T05:15:44.698Z,1001.11
2018-12-22T05:16:44.725Z,1001.12
2018-12-22T05:17:44.700Z,1001.03
2018-12-22T05:18:44.696Z,1001.05
2018-12-22T05:19:44.657Z,1001.04
2018-12-22T05:20:44.660Z,1001.09
2018-12-22T05:21:44.644Z,1001.06
2018-12-22T05:22:44.625Z,1001.15
2018-12-22T05:23:44.605Z,1001.05
2018-12-22T05:24:44.636Z,1001.13
2018-12-22T05:25:44.587Z,1001.09
2018-12-22T05:26:44.604Z,1001.08
2018-12-22T05:27:44.581Z,1001.08
2018-12-22T05:28:44.554Z,1001.16
2018-12-22T05:29:51.764Z,1001.11
2018-12-22T05:30:45.553Z,1001.08
2018-12-22T05:31:44.552Z,1001.09
2018-12-22T05:32:44.542Z,1001.07
2018-12-22T05:33:44.508Z,1001.14
2018-12-22T05:34:44.502Z,1001.16
2018-12-22T05:35:44.480Z,1001.18
2018-12-22T05:36:44.497Z,1001.14
2018-12-22T05:37:44.454Z,1001.20
2018-12-22T05:38:44.466Z,1001.16
2018-12-22T05:39:44.450Z,1001.09
2018-12-22T05:40:44.420Z,1001.23
2018-12-22T05:41:44.459Z,1001.16
2018-12-22T05:42:44.412Z,1001.24
2018-12-22T05:43:44.475Z,1001.25
2018-12-22T05:44:44.387Z,1001.21
2018-12-22T05:45:44.391Z,1001.22
2018-12-22T05:46:44.394Z,1001.27
2018-12-22T05:47:44.343Z,1001.28
2018-12-22T05:48:44.370Z,1001.26
2018-12-22T05:49:44.357Z,1001.27
2018-12-22T05:50:44.308Z,1001.40
2018-12-22T05:51:44.357Z,1001.34
2018-12-22T05:52:44.307Z,1001.40
2018-12-22T05:53:44.288Z,1001.40
2018-12-22T05:54:44.281Z,1001.36
2018-12-22T05:55:44.304Z,1001.41
2018-12-22T05:56:44.287Z,1001.32
2018-12-22T05:57:44.249Z,1001.40
2018-12-22T05:58:44.264Z,1001.45
2018-12-22T05:59:44.213Z,1001.45
2018-12-22T06:00:44.211Z,1001.44
2018-12-22T06:01:44.219Z,1001.48
2018-12-22T06:02:44.203Z,1001.49
2018-12-22T06:03:44.191Z,1001.48
2018-12-22T06:04:44.152Z,1001.45
2018-12-22T06:05:44.153Z,1001.46
2018-12-22T06:06:44.202Z,1001.45
2018-12-22T06:07:44.134Z,1001.48
2018-12-22T06:08:44.107Z,1001.55
2018-12-22T06:09:44.098Z,1001.57
2018-12-22T06:10:44.090Z,1001.59
2018-12-22T06:11:44.077Z,1001.68
2018-12-22T06:12:44.073Z,1001.61
2018-12-22T06:13:44.054Z,1001.64
2018-12-22T06:14:44.079Z,1001.72
2018-12-22T06:15:44.049Z,1001.73
2018-12-22T06:16:44.018Z,1001.76
2018-12-22T06:17:44.027Z,1001.79
2018-12-22T06:18:44.004Z,1001.68
2018-12-22T06:19:43.994Z,1001.79
2018-12-22T06:20:44.019Z,1001.78
2018-12-22T06:21:43.983Z,1001.83
2018-12-22T06:22:43.981Z,1001.87
2018-12-22T06:23:43.969Z,1001.95
2018-12-22T06:24:43.934Z,1001.90
2018-12-22T06:25:43.925Z,1001.97
2018-12-22T06:26:43.932Z,1001.96
2018-12-22T06:27:43.915Z,1002.00
2018-12-22T06:28:43.921Z,1001.98
2018-12-22T06:29:43.890Z,1001.99
2018-12-22T06:30:43.937Z,1002.09
2018-12-22T06:31:43.937Z,1002.07
2018-12-22T06:32:43.922Z,1002.12
2018-12-22T06:33:43.853Z,1002.15
2018-12-22T06:34:43.843Z,1002.09
2018-12-22T06:35:43.841Z,1002.19
2018-12-22T06:36:43.856Z,1002.10
2018-12-22T06:37:43.827Z,1002.14
2018-12-22T06:38:43.825Z,1002.08
2018-12-22T06:39:43.811Z,1002.07
2018-12-22T06:40:43.793Z,1002.09
2018-12-22T06:41:43.763Z,1002.16
2018-12-22T06:42:43.765Z,1002.24
2018-12-22T06:43:43.745Z,1002.18
2018-12-22T06:44:43.724Z,1002.21
2018-12-22T06:45:43.727Z,1002.38
2018-12-22T06:46:43.791Z,1002.39
2018-12-22T06:47:43.722Z,1002.33
2018-12-22T06:48:43.697Z,1002.34
2018-12-22T06:49:43.695Z,1002.33
2018-12-22T06:50:43.655Z,1002.35
2018-12-22T06:51:43.646Z,1002.37
2018-12-22T06:52:43.660Z,1002.44
2018-12-22T06:53:43.660Z,1002.53
2018-12-22T06:54:43.644Z,1002.52
2018-12-22T06:55:43.619Z,1002.53
2018-12-22T06:56:43.641Z,1002.57
2018-12-22T06:57:43.585Z,1002.61
2018-12-22T06:58:43.574Z,1002.75
2018-12-22T06:59:43.568Z,1002.70
2018-12-22T07:00:43.552Z,1002.72
2018-12-22T07:01:43.532Z,1002.78
2018-12-22T07:02:43.616Z,1002.76
2018-12-22T07:03:43.553Z,1002.77
2018-12-22T07:04:43.526Z,1002.77
2018-12-22T07:05:43.530Z,1002.79
2018-12-22T07:06:43.514Z,1002.83
2018-12-22T07:07:43.471Z,1002.96
2018-12-22T07:08:43.462Z,1002.93
2018-12-22T07:09:43.463Z,1002.98
2018-12-22T07:10:43.471Z,1002.98
2018-12-22T07:11:43.539Z,1003.00
2018-12-22T07:12:43.422Z,1002.96
2018-12-22T07:13:43.450Z,1003.02
2018-12-22T07:14:43.481Z,1003.02
2018-12-22T07:15:43.399Z,1003.13
2018-12-22T07:16:43.382Z,1003.11
2018-12-22T07:17:43.369Z,1003.20
2018-12-22T07:18:43.352Z,1003.18
2018-12-22T07:19:43.397Z,1003.23
2018-12-22T07:20:43.323Z,1003.15
2018-12-22T07:21:43.377Z,1003.20
2018-12-22T07:22:43.331Z,1003.32
2018-12-22T07:23:43.295Z,1003.33
2018-12-22T07:24:43.273Z,1003.28
2018-12-22T07:25:43.303Z,1003.30
2018-12-22T07:26:43.284Z,1003.35
2018-12-22T07:27:43.285Z,1003.36
2018-12-22T07:28:43.233Z,1003.34
2018-12-22T07:29:43.254Z,1003.37
2018-12-22T07:30:43.235Z,1003.40
2018-12-22T07:31:43.208Z,1003.48
2018-12-22T07:32:43.234Z,1003.47
2018-12-22T07:33:43.178Z,1003.53
2018-12-22T07:34:43.170Z,1003.50
2018-12-22T07:35:43.172Z,1003.58
2018-12-22T07:36:43.203Z,1003.62
2018-12-22T07:37:43.146Z,1003.59
2018-12-22T07:38:43.113Z,1003.62
2018-12-22T07:39:43.114Z,1003.59
2018-12-22T07:40:43.112Z,1003.67
2018-12-22T07:41:43.080Z,1003.71
2018-12-22T07:42:43.073Z,1003.66
2018-12-22T07:43:43.090Z,1003.67
2018-12-22T07:44:43.049Z,1003.78
2018-12-22T07:45:43.061Z,1003.78
2018-12-22T07:46:43.025Z,1003.72
2018-12-22T07:47:43.023Z,1003.86
2018-12-22T07:48:43.021Z,1003.88
2018-12-22T07:49:43.004Z,1003.93
2018-12-22T07:50:42.987Z,1003.97
2018-12-22T07:51:43.007Z,1004.01
2018-12-22T07:52:51.409Z,1004.08
2018-12-22T07:53:44.012Z,1004.04
2018-12-22T07:54:43.795Z,1004.06
2018-12-22T07:55:42.932Z,1004.12
2018-12-22T07:56:42.928Z,1004.13
2018-12-22T07:57:42.909Z,1004.20
2018-12-22T07:58:42.913Z,1004.19
2018-12-22T07:59:42.885Z,1004.29
2018-12-22T08:00:42.886Z,1004.26
2018-12-22T08:01:42.877Z,1004.36
2018-12-22T08:02:42.891Z,1004.33
2018-12-22T08:03:42.905Z,1004.43
2018-12-22T08:04:42.839Z,1004.41
2018-12-22T08:05:42.849Z,1004.30
2018-12-22T08:06:42.812Z,1004.37
2018-12-22T08:07:42.853Z,1004.46
2018-12-22T08:08:42.815Z,1004.49
2018-12-22T08:09:42.786Z,1004.50
2018-12-22T08:10:42.813Z,1004.63
2018-12-22T08:11:42.760Z,1004.51
2018-12-22T08:12:42.773Z,1004.55
2018-12-22T08:13:42.801Z,1004.62
2018-12-22T08:14:42.719Z,1004.66
2018-12-22T08:15:43.109Z,1004.69
2018-12-22T08:16:42.720Z,1004.72
2018-12-22T08:17:42.746Z,1004.77
2018-12-22T08:18:42.719Z,1004.81
2018-12-22T08:19:42.707Z,1004.84
2018-12-22T08:20:42.688Z,1004.87
2018-12-22T08:21:42.688Z,1004.87
2018-12-22T08:22:42.711Z,1004.92
2018-12-22T08:23:42.633Z,1004.91
2018-12-22T08:24:42.617Z,1004.92
2018-12-22T08:25:42.659Z,1005.00
2018-12-22T08:26:42.589Z,1005.03
2018-12-22T08:27:42.669Z,1005.07
2018-12-22T08:28:42.593Z,1005.10
2018-12-22T08:29:42.569Z,1005.17
2018-12-22T08:30:43.606Z,1005.18
2018-12-22T08:31:42.541Z,1005.18
2018-12-22T08:32:42.537Z,1005.26
2018-12-22T08:33:42.540Z,1005.28
2018-12-22T08:34:42.558Z,1005.23
2018-12-22T08:35:42.570Z,1005.30
2018-12-22T08:36:42.537Z,1005.35
2018-12-22T08:37:42.478Z,1005.30
2018-12-22T08:38:42.573Z,1005.29
2018-12-22T08:39:42.577Z,1005.33
2018-12-22T08:40:42.499Z,1005.35
2018-12-22T08:41:42.449Z,1005.45
2018-12-22T08:42:42.425Z,1005.51
2018-12-22T08:43:42.423Z,1005.54
2018-12-22T08:44:42.905Z,1005.52
2018-12-22T08:45:42.394Z,1005.62
2018-12-22T08:46:42.373Z,1005.62
2018-12-22T08:47:42.367Z,1005.60
2018-12-22T08:48:42.443Z,1005.64
2018-12-22T08:49:42.335Z,1005.61
2018-12-22T08:50:42.328Z,1005.70
2018-12-22T08:51:42.342Z,1005.74
2018-12-22T08:52:42.302Z,1005.72
2018-12-22T08:53:42.310Z,1005.86
2018-12-22T08:54:42.284Z,1005.82
2018-12-22T08:55:42.299Z,1005.86
2018-12-22T08:56:42.306Z,1005.96
2018-12-22T08:57:42.267Z,1005.99
2018-12-22T08:58:42.235Z,1005.96
2018-12-22T08:59:42.235Z,1006.00
2018-12-22T09:00:42.255Z,1006.06
2018-12-22T09:01:42.205Z,1006.04
2018-12-22T09:02:42.207Z,1006.02
2018-12-22T09:03:42.190Z,1006.07
2018-12-22T09:04:42.179Z,1006.08
2018-12-22T09:05:42.233Z,1006.13
2018-12-22T09:06:42.157Z,1006.10
2018-12-22T09:07:42.147Z,1006.11
2018-12-22T09:08:42.174Z,1006.09
2018-12-22T09:09:42.121Z,1006.13
2018-12-22T09:10:42.142Z,1006.12
2018-12-22T09:11:42.124Z,1006.13
2018-12-22T09:12:42.079Z,1006.17
2018-12-22T09:13:42.107Z,1006.23
2018-12-22T09:14:42.081Z,1006.27
2018-12-22T09:15:42.072Z,1006.32
2018-12-22T09:16:42.039Z,1006.34
2018-12-22T09:17:42.037Z,1006.37
2018-12-22T09:18:42.025Z,1006.37
2018-12-22T09:19:42.018Z,1006.37
2018-12-22T09:20:42.052Z,1006.40
2018-12-22T09:21:42.007Z,1006.43
2018-12-22T09:22:41.981Z,1006.43
2018-12-22T09:23:42.255Z,1006.46
2018-12-22T09:24:41.973Z,1006.51
2018-12-22T09:25:41.967Z,1006.49
2018-12-22T09:26:41.976Z,1006.54
2018-12-22T09:27:42.076Z,1006.57
2018-12-22T09:28:41.920Z,1006.51
2018-12-22T09:29:41.925Z,1006.54
2018-12-22T09:30:41.884Z,1006.54
2018-12-22T09:31:41.916Z,1006.57
2018-12-22T09:32:41.885Z,1006.56
2018-12-22T09:33:41.891Z,1006.60
2018-12-22T09:34:41.857Z,1006.65
2018-12-22T09:35:41.844Z,1006.69
2018-12-22T09:36:41.821Z,1006.77
2018-12-22T09:37:41.823Z,1006.78
2018-12-22T09:38:41.806Z,1006.82
2018-12-22T09:39:41.818Z,1006.85
2018-12-22T09:40:41.786Z,1006.86
2018-12-22T09:41:41.827Z,1006.85
2018-12-22T09:42:41.783Z,1006.90
2018-12-22T09:43:41.907Z,1006.90
2018-12-22T09:44:41.750Z,1006.87
2018-12-22T09:45:41.772Z,1006.84
2018-12-22T09:46:41.710Z,1006.87
2018-12-22T09:47:41.780Z,1006.87
2018-12-22T09:48:41.691Z,1006.88
2018-12-22T09:49:41.679Z,1006.93
2018-12-22T09:50:41.677Z,1006.85
2018-12-22T09:51:41.696Z,1006.82
2018-12-22T09:52:41.647Z,1006.88
2018-12-22T09:53:41.628Z,1006.88
2018-12-22T09:54:41.644Z,1006.91
2018-12-22T09:55:41.634Z,1006.93
2018-12-22T09:56:41.603Z,1006.92
2018-12-22T09:57:41.600Z,1006.94
2018-12-22T09:58:41.603Z,1006.89
2018-12-22T09:59:41.579Z,1006.93
2018-12-22T10:00:41.565Z,1006.92
2018-12-22T10:01:41.545Z,1006.90
2018-12-22T10:02:41.538Z,1006.90
2018-12-22T10:03:41.531Z,1006.94
2018-12-22T10:04:41.516Z,1006.95
2018-12-22T10:05:41.514Z,1006.99
2018-12-22T10:06:41.533Z,1007.02
2018-12-22T10:07:41.512Z,1007.04
2018-12-22T10:08:41.461Z,1007.00
2018-12-22T10:09:41.460Z,1007.01
2018-12-22T10:10:41.454Z,1007.06
2018-12-22T10:11:41.450Z,1007.07
2018-12-22T10:12:41.429Z,1007.05
2018-12-22T10:13:41.437Z,1007.08
2018-12-22T10:14:41.477Z,1007.07
2018-12-22T10:15:41.413Z,1007.12
2018-12-22T10:16:41.379Z,1007.16
2018-12-22T10:17:41.395Z,1007.14
2018-12-22T10:18:41.358Z,1007.13
2018-12-22T10:19:41.363Z,1007.15
2018-12-22T10:20:41.435Z,1007.13
2018-12-22T10:21:41.324Z,1007.13
2018-12-22T10:22:41.315Z,1007.18
2018-12-22T10:23:41.304Z,1007.18
2018-12-22T10:24:41.311Z,1007.15
2018-12-22T10:25:41.308Z,1007.22
2018-12-22T10:26:41.273Z,1007.20
2018-12-22T10:27:41.272Z,1007.23
2018-12-22T10:28:41.242Z,1007.22
2018-12-22T10:29:41.231Z,1007.26
2018-12-22T10:30:41.236Z,1007.25
2018-12-22T10:31:41.219Z,1007.25
2018-12-22T10:32:41.236Z,1007.32
2018-12-22T10:33:41.184Z,1007.27
2018-12-22T10:34:41.180Z,1007.31
2018-12-22T10:35:41.191Z,1007.29
2018-12-22T10:36:41.170Z,1007.30
2018-12-22T10:37:41.153Z,1007.31
2018-12-22T10:38:41.135Z,1007.31
2018-12-22T10:39:41.120Z,1007.37
2018-12-22T10:40:41.196Z,1007.35
2018-12-22T10:41:41.234Z,1007.35
2018-12-22T10:42:41.103Z,1007.36
2018-12-22T10:43:41.115Z,1007.44
2018-12-22T10:44:41.063Z,1007.43
2018-12-22T10:45:41.066Z,1007.44
2018-12-22T10:46:41.083Z,1007.51
2018-12-22T10:47:41.034Z,1007.49
2018-12-22T10:48:41.030Z,1007.49
2018-12-22T10:49:41.052Z,1007.46
2018-12-22T10:50:41.021Z,1007.44
2018-12-22T10:51:41.011Z,1007.46
2018-12-22T10:52:41.131Z,1007.43
2018-12-22T10:53:40.978Z,1007.40
2018-12-22T10:54:41.025Z,1007.45
2018-12-22T10:55:40.993Z,1007.41
2018-12-22T10:56:40.975Z,1007.40
2018-12-22T10:57:40.934Z,1007.40
2018-12-22T10:58:40.991Z,1007.42
2018-12-22T10:59:40.937Z,1007.45
2018-12-22T11:00:40.908Z,1007.42
2018-12-22T11:01:40.921Z,1007.43
2018-12-22T11:02:40.870Z,1007.42
2018-12-22T11:03:40.896Z,1007.39
2018-12-22T11:04:40.854Z,1007.46
2018-12-22T11:05:40.838Z,1007.47
2018-12-22T11:06:40.867Z,1007.44
2018-12-22T11:07:40.813Z,1007.47
2018-12-22T11:08:40.801Z,1007.46
2018-12-22T11:09:40.810Z,1007.50
2018-12-22T11:10:40.863Z,1007.53
2018-12-22T11:11:40.937Z,1007.56
2018-12-22T11:12:40.803Z,1007.53
2018-12-22T11:13:40.756Z,1007.52
2018-12-22T11:14:40.804Z,1007.52
2018-12-22T11:15:40.732Z,1007.50
2018-12-22T11:16:40.727Z,1007.53
2018-12-22T11:17:40.783Z,1007.56
2018-12-22T11:18:40.725Z,1007.53
2018-12-22T11:19:40.677Z,1007.61
2018-12-22T11:20:40.726Z,1007.58
2018-12-22T11:21:40.707Z,1007.58
2018-12-22T11:22:40.699Z,1007.62
2018-12-22T11:23:40.642Z,1007.60
2018-12-22T11:24:40.625Z,1007.62
2018-12-22T11:25:40.677Z,1007.60
2018-12-22T11:26:40.621Z,1007.63
2018-12-22T11:27:40.596Z,1007.60
2018-12-22T11:28:40.582Z,1007.63
2018-12-22T11:29:40.588Z,1007.62
2018-12-22T11:30:40.565Z,1007.61
2018-12-22T11:31:40.583Z,1007.66
2018-12-22T11:32:40.537Z,1007.64
2018-12-22T11:33:40.535Z,1007.63
2018-12-22T11:34:40.522Z,1007.69
2018-12-22T11:35:40.511Z,1007.65
2018-12-22T11:36:40.558Z,1007.62
2018-12-22T11:37:40.489Z,1007.66
2018-12-22T11:38:40.468Z,1007.71
2018-12-22T11:39:40.534Z,1007.72
2018-12-22T11:40:40.587Z,1007.69
2018-12-22T11:41:40.496Z,1007.71
2018-12-22T11:42:47.573Z,1007.72
2018-12-22T11:43:41.434Z,1007.74
2018-12-22T11:44:40.419Z,1007.70
2018-12-22T11:45:40.403Z,1007.70
2018-12-22T11:46:40.390Z,1007.76
2018-12-22T11:47:40.394Z,1007.76
2018-12-22T11:48:40.357Z,1007.76
2018-12-22T11:49:40.367Z,1007.75
2018-12-22T11:50:40.355Z,1007.78
2018-12-22T11:51:40.342Z,1007.79
2018-12-22T11:52:40.323Z,1007.82
2018-12-22T11:53:40.347Z,1007.81
2018-12-22T11:54:40.308Z,1007.83
2018-12-22T11:55:40.282Z,1007.89
2018-12-22T11:56:40.315Z,1007.87
2018-12-22T11:57:40.278Z,1007.89
2018-12-22T11:58:40.281Z,1007.90
2018-12-22T11:59:40.282Z,1007.93
2018-12-22T12:00:40.253Z,1007.87
2018-12-22T12:01:43.703Z,1007.84
2018-12-22T12:02:40.229Z,1007.90
2018-12-22T12:03:40.218Z,1007.89
2018-12-22T12:04:42.085Z,1007.93
2018-12-22T12:05:40.187Z,1007.95